sensor_id;sensor_type;location;lat;lon;timestamp;temperature;humidity
58413;DHT22;44209;52.952;6.790;2023-03-01T00:01:29;-0.30;99.90
58413;DHT22;44209;52.952;6.790;2023-03-01T00:03:56;-0.30;99.90
58413;DHT22;44209;52.952;6.790;2023-03-01T00:06:22;-0.40;99.90
58413;DHT22;44209;52.952;6.790;2023-03-01T00:08:48;-0.40;99.90
58413;DHT22;44209;52.952;6.790;2023-03-01T00:11:16;-0.40;99.90
58413;DHT22;44209;52.952;6.790;2023-03-01T00:13:43;-0.40;99.90
58413;DHT22;44209;52.952;6.790;2023-03-01T00:16:24;-0.40;99.90
58413;DHT22;44209;52.952;6.790;2023-03-01T00:18:49;-0.40;99.90
58413;DHT22;44209;52.952;6.790;2023-03-01T00:21:16;-0.50;99.90
58413;DHT22;44209;52.952;6.790;2023-03-01T00:23:42;-0.50;99.90
58413;DHT22;44209;52.952;6.790;2023-03-01T00:26:13;-0.60;99.90
58413;DHT22;44209;52.952;6.790;2023-03-01T00:28:39;-0.50;99.90
58413;DHT22;44209;52.952;6.790;2023-03-01T00:31:06;-0.60;99.90
58413;DHT22;44209;52.952;6.790;2023-03-01T00:33:32;-0.60;99.90
58413;DHT22;44209;52.952;6.790;2023-03-01T00:35:59;-0.60;99.90
58413;DHT22;44209;52.952;6.790;2023-03-01T00:38:24;-0.60;99.90
58413;DHT22;44209;52.952;6.790;2023-03-01T00:40:50;-0.60;99.90
58413;DHT22;44209;52.952;6.790;2023-03-01T00:43:16;-0.60;99.90
58413;DHT22;44209;52.952;6.790;2023-03-01T00:45:41;-0.60;99.90
58413;DHT22;44209;52.952;6.790;2023-03-01T00:48:07;-0.70;99.90
58413;DHT22;44209;52.952;6.790;2023-03-01T00:50:33;-0.80;99.90
58413;DHT22;44209;52.952;6.790;2023-03-01T00:52:59;-0.80;99.90
58413;DHT22;44209;52.952;6.790;2023-03-01T00:55:25;-0.80;99.90
58413;DHT22;44209;52.952;6.790;2023-03-01T00:57:53;-0.80;99.90
58413;DHT22;44209;52.952;6.790;2023-03-01T01:00:19;-0.80;99.90
58413;DHT22;44209;52.952;6.790;2023-03-01T01:02:46;-0.90;99.90
58413;DHT22;44209;52.952;6.790;2023-03-01T01:05:12;-0.90;99.90
58413;DHT22;44209;52.952;6.790;2023-03-01T01:07:38;-0.90;99.90
58413;DHT22;44209;52.952;6.790;2023-03-01T01:10:04;-0.90;99.90
58413;DHT22;44209;52.952;6.790;2023-03-01T01:12:29;-0.90;99.90
58413;DHT22;44209;52.952;6.790;2023-03-01T01:14:55;-0.90;99.90
58413;DHT22;44209;52.952;6.790;2023-03-01T01:17:21;-0.90;99.90
58413;DHT22;44209;52.952;6.790;2023-03-01T01:19:47;-0.90;99.90
58413;DHT22;44209;52.952;6.790;2023-03-01T01:22:12;-0.90;99.90
58413;DHT22;44209;52.952;6.790;2023-03-01T01:24:38;-0.90;99.90
58413;DHT22;44209;52.952;6.790;2023-03-01T01:27:03;-0.90;99.90
58413;DHT22;44209;52.952;6.790;2023-03-01T01:29:29;-0.90;99.90
58413;DHT22;44209;52.952;6.790;2023-03-01T01:31:55;-0.90;99.90
58413;DHT22;44209;52.952;6.790;2023-03-01T01:34:21;-0.90;99.90
58413;DHT22;44209;52.952;6.790;2023-03-01T01:36:51;-0.90;99.90
58413;DHT22;44209;52.952;6.790;2023-03-01T01:39:20;-0.90;99.90
58413;DHT22;44209;52.952;6.790;2023-03-01T01:41:46;-1.00;99.90
58413;DHT22;44209;52.952;6.790;2023-03-01T01:46:49;-1.00;99.90
58413;DHT22;44209;52.952;6.790;2023-03-01T01:52:20;-1.00;99.90
58413;DHT22;44209;52.952;6.790;2023-03-01T01:54:54;-1.00;99.90
58413;DHT22;44209;52.952;6.790;2023-03-01T01:57:26;-1.10;99.90
58413;DHT22;44209;52.952;6.790;2023-03-01T01:59:58;-1.20;99.90
58413;DHT22;44209;52.952;6.790;2023-03-01T02:02:24;-1.20;99.90
58413;DHT22;44209;52.952;6.790;2023-03-01T02:04:55;-1.20;99.90
58413;DHT22;44209;52.952;6.790;2023-03-01T02:07:27;-1.20;99.90
58413;DHT22;44209;52.952;6.790;2023-03-01T02:09:53;-1.20;99.90
58413;DHT22;44209;52.952;6.790;2023-03-01T02:12:21;-1.20;99.90
58413;DHT22;44209;52.952;6.790;2023-03-01T02:14:48;-1.10;99.90
58413;DHT22;44209;52.952;6.790;2023-03-01T02:17:16;-1.10;99.90
58413;DHT22;44209;52.952;6.790;2023-03-01T02:20:08;-1.10;99.90
58413;DHT22;44209;52.952;6.790;2023-03-01T02:22:37;-1.10;99.90
58413;DHT22;44209;52.952;6.790;2023-03-01T02:27:40;-1.30;99.90
58413;DHT22;44209;52.952;6.790;2023-03-01T02:30:09;-1.30;99.90
58413;DHT22;44209;52.952;6.790;2023-03-01T02:32:42;-1.30;99.90
58413;DHT22;44209;52.952;6.790;2023-03-01T02:35:14;-1.30;99.90
58413;DHT22;44209;52.952;6.790;2023-03-01T02:37:41;-1.30;99.90
58413;DHT22;44209;52.952;6.790;2023-03-01T02:40:11;-1.30;99.90
58413;DHT22;44209;52.952;6.790;2023-03-01T02:42:51;-1.30;99.90
58413;DHT22;44209;52.952;6.790;2023-03-01T02:45:19;-1.30;99.90
58413;DHT22;44209;52.952;6.790;2023-03-01T02:47:45;-1.40;99.90
58413;DHT22;44209;52.952;6.790;2023-03-01T02:50:55;-1.40;99.90
58413;DHT22;44209;52.952;6.790;2023-03-01T02:53:53;-1.40;99.90
58413;DHT22;44209;52.952;6.790;2023-03-01T02:56:20;-1.40;99.90
58413;DHT22;44209;52.952;6.790;2023-03-01T02:58:46;-1.40;99.90
58413;DHT22;44209;52.952;6.790;2023-03-01T03:01:17;-1.40;99.90
58413;DHT22;44209;52.952;6.790;2023-03-01T03:03:43;-1.40;99.90
58413;DHT22;44209;52.952;6.790;2023-03-01T03:06:09;-1.30;99.90
58413;DHT22;44209;52.952;6.790;2023-03-01T03:08:35;-1.40;99.90
58413;DHT22;44209;52.952;6.790;2023-03-01T03:11:00;-1.40;99.90
58413;DHT22;44209;52.952;6.790;2023-03-01T03:13:26;-1.40;99.90
58413;DHT22;44209;52.952;6.790;2023-03-01T03:15:55;-1.30;99.90
58413;DHT22;44209;52.952;6.790;2023-03-01T03:18:21;-1.30;99.90
58413;DHT22;44209;52.952;6.790;2023-03-01T03:20:48;-1.30;99.90
58413;DHT22;44209;52.952;6.790;2023-03-01T03:23:18;-1.30;99.90
58413;DHT22;44209;52.952;6.790;2023-03-01T03:25:48;-1.40;99.90
58413;DHT22;44209;52.952;6.790;2023-03-01T03:28:14;-1.40;99.90
58413;DHT22;44209;52.952;6.790;2023-03-01T03:30:41;-1.40;99.90
58413;DHT22;44209;52.952;6.790;2023-03-01T03:33:08;-1.40;99.90
58413;DHT22;44209;52.952;6.790;2023-03-01T03:35:40;-1.50;99.90
58413;DHT22;44209;52.952;6.790;2023-03-01T03:38:10;-1.50;99.90
58413;DHT22;44209;52.952;6.790;2023-03-01T03:40:46;-1.50;99.90
58413;DHT22;44209;52.952;6.790;2023-03-01T03:43:20;-1.60;99.90
58413;DHT22;44209;52.952;6.790;2023-03-01T03:45:48;-1.60;99.90
58413;DHT22;44209;52.952;6.790;2023-03-01T03:48:14;-1.60;99.90
58413;DHT22;44209;52.952;6.790;2023-03-01T03:50:40;-1.60;99.90
58413;DHT22;44209;52.952;6.790;2023-03-01T03:53:09;-1.70;99.90
58413;DHT22;44209;52.952;6.790;2023-03-01T03:55:35;-1.60;99.90
58413;DHT22;44209;52.952;6.790;2023-03-01T03:58:08;-1.70;99.90
58413;DHT22;44209;52.952;6.790;2023-03-01T04:00:37;-1.70;99.90
58413;DHT22;44209;52.952;6.790;2023-03-01T04:03:03;-1.70;99.90
58413;DHT22;44209;52.952;6.790;2023-03-01T04:05:29;-1.60;99.90
58413;DHT22;44209;52.952;6.790;2023-03-01T04:07:56;-1.60;99.90
58413;DHT22;44209;52.952;6.790;2023-03-01T04:10:30;-1.60;99.90
58413;DHT22;44209;52.952;6.790;2023-03-01T04:12:56;-1.60;99.90
58413;DHT22;44209;52.952;6.790;2023-03-01T04:15:23;-1.60;99.90
58413;DHT22;44209;52.952;6.790;2023-03-01T04:17:51;-1.70;99.90
58413;DHT22;44209;52.952;6.790;2023-03-01T04:20:23;-1.60;99.90
58413;DHT22;44209;52.952;6.790;2023-03-01T04:25:52;-1.60;99.90
58413;DHT22;44209;52.952;6.790;2023-03-01T04:28:25;-1.60;99.90
58413;DHT22;44209;52.952;6.790;2023-03-01T04:30:56;-1.60;99.90
58413;DHT22;44209;52.952;6.790;2023-03-01T04:33:23;-1.60;99.90
58413;DHT22;44209;52.952;6.790;2023-03-01T04:35:50;-1.70;99.90
58413;DHT22;44209;52.952;6.790;2023-03-01T04:38:17;-1.70;99.90
58413;DHT22;44209;52.952;6.790;2023-03-01T04:40:42;-1.80;99.90
58413;DHT22;44209;52.952;6.790;2023-03-01T04:43:09;-1.80;99.90
58413;DHT22;44209;52.952;6.790;2023-03-01T04:45:38;-1.80;99.90
58413;DHT22;44209;52.952;6.790;2023-03-01T04:48:04;-1.80;99.90
58413;DHT22;44209;52.952;6.790;2023-03-01T04:50:30;-1.80;99.90
58413;DHT22;44209;52.952;6.790;2023-03-01T04:52:56;-1.80;99.90
58413;DHT22;44209;52.952;6.790;2023-03-01T04:55:28;-1.80;99.90
58413;DHT22;44209;52.952;6.790;2023-03-01T04:57:54;-1.80;99.90
58413;DHT22;44209;52.952;6.790;2023-03-01T05:00:21;-1.80;99.90
58413;DHT22;44209;52.952;6.790;2023-03-01T05:02:53;-1.90;99.90
58413;DHT22;44209;52.952;6.790;2023-03-01T05:05:20;-1.90;99.90
58413;DHT22;44209;52.952;6.790;2023-03-01T05:07:46;-2.00;99.90
58413;DHT22;44209;52.952;6.790;2023-03-01T05:10:12;-2.00;99.90
58413;DHT22;44209;52.952;6.790;2023-03-01T05:12:40;-2.00;99.90
58413;DHT22;44209;52.952;6.790;2023-03-01T05:15:06;-1.90;99.90
58413;DHT22;44209;52.952;6.790;2023-03-01T05:17:33;-1.90;99.90
58413;DHT22;44209;52.952;6.790;2023-03-01T05:19:59;-1.90;99.90
58413;DHT22;44209;52.952;6.790;2023-03-01T05:22:26;-1.90;99.90
58413;DHT22;44209;52.952;6.790;2023-03-01T05:24:52;-1.90;99.90
58413;DHT22;44209;52.952;6.790;2023-03-01T05:27:19;-1.90;99.90
58413;DHT22;44209;52.952;6.790;2023-03-01T05:29:47;-1.90;99.90
58413;DHT22;44209;52.952;6.790;2023-03-01T05:32:13;-1.90;99.90
58413;DHT22;44209;52.952;6.790;2023-03-01T05:34:41;-1.80;99.90
58413;DHT22;44209;52.952;6.790;2023-03-01T05:37:07;-1.90;99.90
58413;DHT22;44209;52.952;6.790;2023-03-01T05:39:33;-1.90;99.90
58413;DHT22;44209;52.952;6.790;2023-03-01T05:42:00;-2.00;99.90
58413;DHT22;44209;52.952;6.790;2023-03-01T05:44:28;-2.00;99.90
58413;DHT22;44209;52.952;6.790;2023-03-01T05:46:54;-1.90;99.90
58413;DHT22;44209;52.952;6.790;2023-03-01T05:49:20;-2.00;99.90
58413;DHT22;44209;52.952;6.790;2023-03-01T05:51:50;-2.00;99.90
58413;DHT22;44209;52.952;6.790;2023-03-01T05:54:17;-2.10;99.90
58413;DHT22;44209;52.952;6.790;2023-03-01T05:56:43;-2.10;99.90
58413;DHT22;44209;52.952;6.790;2023-03-01T05:59:08;-2.10;99.90
58413;DHT22;44209;52.952;6.790;2023-03-01T06:01:35;-2.10;99.90
58413;DHT22;44209;52.952;6.790;2023-03-01T06:04:02;-2.10;99.90
58413;DHT22;44209;52.952;6.790;2023-03-01T06:06:28;-2.10;99.90
58413;DHT22;44209;52.952;6.790;2023-03-01T06:08:54;-2.10;99.90
58413;DHT22;44209;52.952;6.790;2023-03-01T06:11:20;-2.10;99.90
58413;DHT22;44209;52.952;6.790;2023-03-01T06:13:46;-2.20;99.90
58413;DHT22;44209;52.952;6.790;2023-03-01T06:16:13;-2.20;99.90
58413;DHT22;44209;52.952;6.790;2023-03-01T06:18:39;-2.10;99.90
58413;DHT22;44209;52.952;6.790;2023-03-01T06:21:07;-2.10;99.90
58413;DHT22;44209;52.952;6.790;2023-03-01T06:23:32;-2.10;99.90
58413;DHT22;44209;52.952;6.790;2023-03-01T06:25:58;-2.20;99.90
58413;DHT22;44209;52.952;6.790;2023-03-01T06:28:24;-2.10;99.90
58413;DHT22;44209;52.952;6.790;2023-03-01T06:30:50;-2.10;99.90
58413;DHT22;44209;52.952;6.790;2023-03-01T06:33:17;-2.10;99.90
58413;DHT22;44209;52.952;6.790;2023-03-01T06:35:47;-2.10;99.90
58413;DHT22;44209;52.952;6.790;2023-03-01T06:38:13;-2.10;99.90
58413;DHT22;44209;52.952;6.790;2023-03-01T06:40:44;-2.10;99.90
58413;DHT22;44209;52.952;6.790;2023-03-01T06:43:10;-2.10;99.90
58413;DHT22;44209;52.952;6.790;2023-03-01T06:45:37;-2.10;99.90
58413;DHT22;44209;52.952;6.790;2023-03-01T06:48:04;-2.00;99.90
58413;DHT22;44209;52.952;6.790;2023-03-01T06:50:30;-2.00;99.90
58413;DHT22;44209;52.952;6.790;2023-03-01T06:52:57;-2.00;99.90
58413;DHT22;44209;52.952;6.790;2023-03-01T06:55:22;-2.00;99.90
58413;DHT22;44209;52.952;6.790;2023-03-01T06:57:48;-1.90;99.90
58413;DHT22;44209;52.952;6.790;2023-03-01T07:00:14;-1.90;99.90
58413;DHT22;44209;52.952;6.790;2023-03-01T07:02:40;-1.90;99.90
58413;DHT22;44209;52.952;6.790;2023-03-01T07:05:06;-1.80;99.90
58413;DHT22;44209;52.952;6.790;2023-03-01T07:07:32;-1.80;99.90
58413;DHT22;44209;52.952;6.790;2023-03-01T07:10:00;-1.70;99.90
58413;DHT22;44209;52.952;6.790;2023-03-01T07:12:26;-1.70;99.90
58413;DHT22;44209;52.952;6.790;2023-03-01T07:14:51;-1.60;99.90
58413;DHT22;44209;52.952;6.790;2023-03-01T07:17:17;-1.50;99.90
58413;DHT22;44209;52.952;6.790;2023-03-01T07:19:44;-1.40;99.90
58413;DHT22;44209;52.952;6.790;2023-03-01T07:22:10;-1.40;99.90
58413;DHT22;44209;52.952;6.790;2023-03-01T07:24:36;-1.30;99.90
58413;DHT22;44209;52.952;6.790;2023-03-01T07:27:02;-1.20;99.90
58413;DHT22;44209;52.952;6.790;2023-03-01T07:29:27;-1.10;99.90
58413;DHT22;44209;52.952;6.790;2023-03-01T07:31:54;-1.00;99.90
58413;DHT22;44209;52.952;6.790;2023-03-01T07:34:20;-0.90;99.90
58413;DHT22;44209;52.952;6.790;2023-03-01T07:36:46;-0.80;99.90
58413;DHT22;44209;52.952;6.790;2023-03-01T07:39:12;-0.70;99.90
58413;DHT22;44209;52.952;6.790;2023-03-01T07:41:37;-0.60;99.90
58413;DHT22;44209;52.952;6.790;2023-03-01T07:44:03;-0.50;99.90
58413;DHT22;44209;52.952;6.790;2023-03-01T07:46:29;-0.40;99.90
58413;DHT22;44209;52.952;6.790;2023-03-01T07:48:55;-0.40;99.90
58413;DHT22;44209;52.952;6.790;2023-03-01T07:51:21;-0.30;99.90
58413;DHT22;44209;52.952;6.790;2023-03-01T07:53:47;-0.20;99.90
58413;DHT22;44209;52.952;6.790;2023-03-01T07:56:15;-0.10;99.90
58413;DHT22;44209;52.952;6.790;2023-03-01T07:58:43;0.00;99.90
58413;DHT22;44209;52.952;6.790;2023-03-01T08:01:13;0.10;99.90
58413;DHT22;44209;52.952;6.790;2023-03-01T08:03:39;0.20;99.90
58413;DHT22;44209;52.952;6.790;2023-03-01T08:06:07;0.30;99.90
58413;DHT22;44209;52.952;6.790;2023-03-01T08:08:33;0.40;99.90
58413;DHT22;44209;52.952;6.790;2023-03-01T08:11:00;0.50;99.90
58413;DHT22;44209;52.952;6.790;2023-03-01T08:13:27;0.70;99.90
58413;DHT22;44209;52.952;6.790;2023-03-01T08:15:53;0.80;99.90
58413;DHT22;44209;52.952;6.790;2023-03-01T08:18:20;0.90;99.90
58413;DHT22;44209;52.952;6.790;2023-03-01T08:20:46;1.00;99.90
58413;DHT22;44209;52.952;6.790;2023-03-01T08:23:12;1.10;99.90
58413;DHT22;44209;52.952;6.790;2023-03-01T08:25:38;1.10;99.90
58413;DHT22;44209;52.952;6.790;2023-03-01T08:28:04;1.20;99.90
58413;DHT22;44209;52.952;6.790;2023-03-01T08:30:30;1.30;99.90
58413;DHT22;44209;52.952;6.790;2023-03-01T08:32:56;1.40;99.90
58413;DHT22;44209;52.952;6.790;2023-03-01T08:35:22;1.50;99.90
58413;DHT22;44209;52.952;6.790;2023-03-01T08:37:47;1.50;99.90
58413;DHT22;44209;52.952;6.790;2023-03-01T08:40:13;1.60;99.90
58413;DHT22;44209;52.952;6.790;2023-03-01T08:42:41;1.70;99.90
58413;DHT22;44209;52.952;6.790;2023-03-01T08:45:08;1.80;99.90
58413;DHT22;44209;52.952;6.790;2023-03-01T08:47:34;1.90;99.90
58413;DHT22;44209;52.952;6.790;2023-03-01T08:50:00;2.00;99.90
58413;DHT22;44209;52.952;6.790;2023-03-01T08:52:26;2.00;99.90
58413;DHT22;44209;52.952;6.790;2023-03-01T08:54:52;2.10;99.90
58413;DHT22;44209;52.952;6.790;2023-03-01T08:57:18;2.10;99.90
58413;DHT22;44209;52.952;6.790;2023-03-01T08:59:44;2.20;99.90
58413;DHT22;44209;52.952;6.790;2023-03-01T09:02:16;2.20;99.90
58413;DHT22;44209;52.952;6.790;2023-03-01T09:04:42;2.20;99.90
58413;DHT22;44209;52.952;6.790;2023-03-01T09:07:08;2.30;99.90
58413;DHT22;44209;52.952;6.790;2023-03-01T09:09:34;2.40;99.90
58413;DHT22;44209;52.952;6.790;2023-03-01T09:12:00;2.50;99.90
58413;DHT22;44209;52.952;6.790;2023-03-01T09:14:26;2.50;99.90
58413;DHT22;44209;52.952;6.790;2023-03-01T09:16:51;2.60;99.90
58413;DHT22;44209;52.952;6.790;2023-03-01T09:19:17;2.70;99.90
58413;DHT22;44209;52.952;6.790;2023-03-01T09:21:43;2.80;99.90
58413;DHT22;44209;52.952;6.790;2023-03-01T09:24:22;2.80;99.90
58413;DHT22;44209;52.952;6.790;2023-03-01T09:26:48;2.90;99.90
58413;DHT22;44209;52.952;6.790;2023-03-01T09:29:15;3.00;99.90
58413;DHT22;44209;52.952;6.790;2023-03-01T09:31:41;3.10;99.90
58413;DHT22;44209;52.952;6.790;2023-03-01T09:34:07;3.10;99.90
58413;DHT22;44209;52.952;6.790;2023-03-01T09:36:33;3.20;99.90
58413;DHT22;44209;52.952;6.790;2023-03-01T09:39:00;3.20;99.90
58413;DHT22;44209;52.952;6.790;2023-03-01T09:44:06;3.40;99.90
58413;DHT22;44209;52.952;6.790;2023-03-01T09:46:40;3.40;99.90
58413;DHT22;44209;52.952;6.790;2023-03-01T09:49:14;3.50;99.90
58413;DHT22;44209;52.952;6.790;2023-03-01T09:51:42;3.60;99.90
58413;DHT22;44209;52.952;6.790;2023-03-01T09:54:09;3.70;99.90
58413;DHT22;44209;52.952;6.790;2023-03-01T09:56:44;3.80;99.90
58413;DHT22;44209;52.952;6.790;2023-03-01T10:04:23;4.10;99.90
58413;DHT22;44209;52.952;6.790;2023-03-01T10:09:33;4.30;99.90
58413;DHT22;44209;52.952;6.790;2023-03-01T10:12:01;4.40;99.90
58413;DHT22;44209;52.952;6.790;2023-03-01T10:17:36;4.50;99.90
58413;DHT22;44209;52.952;6.790;2023-03-01T10:22:43;4.60;99.90
58413;DHT22;44209;52.952;6.790;2023-03-01T10:25:17;4.70;99.90
58413;DHT22;44209;52.952;6.790;2023-03-01T10:27:53;4.80;99.90
58413;DHT22;44209;52.952;6.790;2023-03-01T10:30:32;4.90;99.90
58413;DHT22;44209;52.952;6.790;2023-03-01T10:33:00;5.00;99.90
58413;DHT22;44209;52.952;6.790;2023-03-01T10:35:29;5.10;99.90
58413;DHT22;44209;52.952;6.790;2023-03-01T10:40:23;5.10;99.90
58413;DHT22;44209;52.952;6.790;2023-03-01T10:42:50;5.10;99.90
58413;DHT22;44209;52.952;6.790;2023-03-01T10:45:37;5.20;99.90
58413;DHT22;44209;52.952;6.790;2023-03-01T10:50:44;5.40;99.90
58413;DHT22;44209;52.952;6.790;2023-03-01T10:56:13;5.50;99.90
58413;DHT22;44209;52.952;6.790;2023-03-01T10:58:59;5.50;99.90
58413;DHT22;44209;52.952;6.790;2023-03-01T11:01:30;5.50;99.90
58413;DHT22;44209;52.952;6.790;2023-03-01T11:06:35;5.60;99.90
58413;DHT22;44209;52.952;6.790;2023-03-01T11:09:18;5.60;99.90
58413;DHT22;44209;52.952;6.790;2023-03-01T11:11:45;5.70;99.90
58413;DHT22;44209;52.952;6.790;2023-03-01T11:14:20;5.80;99.90
58413;DHT22;44209;52.952;6.790;2023-03-01T11:16:57;5.80;99.90
58413;DHT22;44209;52.952;6.790;2023-03-01T11:19:25;5.80;99.90
58413;DHT22;44209;52.952;6.790;2023-03-01T11:22:14;5.80;99.90
58413;DHT22;44209;52.952;6.790;2023-03-01T11:24:46;5.80;99.90
58413;DHT22;44209;52.952;6.790;2023-03-01T11:27:23;5.90;99.90
58413;DHT22;44209;52.952;6.790;2023-03-01T11:29:59;5.90;99.90
58413;DHT22;44209;52.952;6.790;2023-03-01T11:32:34;5.90;99.90
58413;DHT22;44209;52.952;6.790;2023-03-01T11:35:16;5.90;99.90
58413;DHT22;44209;52.952;6.790;2023-03-01T11:40:40;6.10;99.90
58413;DHT22;44209;52.952;6.790;2023-03-01T11:43:33;6.20;99.90
58413;DHT22;44209;52.952;6.790;2023-03-01T11:53:14;6.30;99.90
58413;DHT22;44209;52.952;6.790;2023-03-01T12:17:45;6.60;99.90
58413;DHT22;44209;52.952;6.790;2023-03-01T12:20:28;6.60;99.90
58413;DHT22;44209;52.952;6.790;2023-03-01T12:28:17;6.80;99.90
58413;DHT22;44209;52.952;6.790;2023-03-01T12:33:32;6.80;99.90
58413;DHT22;44209;52.952;6.790;2023-03-01T12:50:12;7.00;99.90
58413;DHT22;44209;52.952;6.790;2023-03-01T12:55:28;7.10;99.90
58413;DHT22;44209;52.952;6.790;2023-03-01T13:18:00;7.30;99.90
58413;DHT22;44209;52.952;6.790;2023-03-01T13:20:30;7.30;99.90
58413;DHT22;44209;52.952;6.790;2023-03-01T13:23:07;7.30;99.90
58413;DHT22;44209;52.952;6.790;2023-03-01T13:25:34;7.30;99.90
58413;DHT22;44209;52.952;6.790;2023-03-01T13:31:03;7.40;99.90
58413;DHT22;44209;52.952;6.790;2023-03-01T13:35:56;7.50;99.90
58413;DHT22;44209;52.952;6.790;2023-03-01T13:38:45;7.60;99.90
58413;DHT22;44209;52.952;6.790;2023-03-01T13:41:16;7.70;99.90
58413;DHT22;44209;52.952;6.790;2023-03-01T13:43:44;7.70;99.90
58413;DHT22;44209;52.952;6.790;2023-03-01T13:46:20;7.70;99.90
58413;DHT22;44209;52.952;6.790;2023-03-01T13:48:51;7.70;99.90
58413;DHT22;44209;52.952;6.790;2023-03-01T13:51:23;7.70;99.90
58413;DHT22;44209;52.952;6.790;2023-03-01T13:53:51;7.70;99.90
58413;DHT22;44209;52.952;6.790;2023-03-01T13:56:27;7.60;99.90
58413;DHT22;44209;52.952;6.790;2023-03-01T13:59:02;7.70;99.90
58413;DHT22;44209;52.952;6.790;2023-03-01T14:01:35;7.70;99.90
58413;DHT22;44209;52.952;6.790;2023-03-01T14:04:02;7.80;99.90
58413;DHT22;44209;52.952;6.790;2023-03-01T14:06:30;7.90;99.90
58413;DHT22;44209;52.952;6.790;2023-03-01T14:14:56;7.90;99.90
58413;DHT22;44209;52.952;6.790;2023-03-01T14:17:25;8.00;99.90
58413;DHT22;44209;52.952;6.790;2023-03-01T14:20:02;8.00;99.90
58413;DHT22;44209;52.952;6.790;2023-03-01T14:22:32;8.00;99.90
58413;DHT22;44209;52.952;6.790;2023-03-01T14:25:06;7.90;99.90
58413;DHT22;44209;52.952;6.790;2023-03-01T14:27:42;7.90;99.90
58413;DHT22;44209;52.952;6.790;2023-03-01T14:30:23;7.90;99.90
58413;DHT22;44209;52.952;6.790;2023-03-01T14:33:03;8.00;99.90
58413;DHT22;44209;52.952;6.790;2023-03-01T14:35:35;8.10;99.90
58413;DHT22;44209;52.952;6.790;2023-03-01T14:38:01;8.00;99.90
58413;DHT22;44209;52.952;6.790;2023-03-01T14:40:34;8.00;99.90
58413;DHT22;44209;52.952;6.790;2023-03-01T14:43:03;8.00;99.90
58413;DHT22;44209;52.952;6.790;2023-03-01T14:45:33;7.90;99.90
58413;DHT22;44209;52.952;6.790;2023-03-01T14:48:01;7.90;99.90
58413;DHT22;44209;52.952;6.790;2023-03-01T14:50:33;8.00;99.90
58413;DHT22;44209;52.952;6.790;2023-03-01T14:53:03;8.00;99.90
58413;DHT22;44209;52.952;6.790;2023-03-01T14:55:35;8.00;99.90
58413;DHT22;44209;52.952;6.790;2023-03-01T14:58:09;8.00;99.90
58413;DHT22;44209;52.952;6.790;2023-03-01T15:00:37;8.00;99.90
58413;DHT22;44209;52.952;6.790;2023-03-01T15:03:15;7.90;99.90
58413;DHT22;44209;52.952;6.790;2023-03-01T15:05:43;7.90;99.90
58413;DHT22;44209;52.952;6.790;2023-03-01T15:08:21;7.80;99.90
58413;DHT22;44209;52.952;6.790;2023-03-01T15:11:21;7.80;99.90
58413;DHT22;44209;52.952;6.790;2023-03-01T15:13:50;7.80;99.90
58413;DHT22;44209;52.952;6.790;2023-03-01T15:16:29;7.80;99.90
58413;DHT22;44209;52.952;6.790;2023-03-01T15:18:59;7.90;99.90
58413;DHT22;44209;52.952;6.790;2023-03-01T15:21:31;7.80;99.90
58413;DHT22;44209;52.952;6.790;2023-03-01T15:24:23;7.90;99.90
58413;DHT22;44209;52.952;6.790;2023-03-01T15:26:58;7.80;99.90
58413;DHT22;44209;52.952;6.790;2023-03-01T15:29:32;7.80;99.90
58413;DHT22;44209;52.952;6.790;2023-03-01T15:32:24;7.70;99.90
58413;DHT22;44209;52.952;6.790;2023-03-01T15:34:46;7.70;99.90
58413;DHT22;44209;52.952;6.790;2023-03-01T15:37:44;7.60;99.90
58413;DHT22;44209;52.952;6.790;2023-03-01T15:40:22;7.60;99.90
58413;DHT22;44209;52.952;6.790;2023-03-01T15:42:57;7.50;99.90
58413;DHT22;44209;52.952;6.790;2023-03-01T15:45:25;7.50;99.90
58413;DHT22;44209;52.952;6.790;2023-03-01T15:48:15;7.40;99.90
58413;DHT22;44209;52.952;6.790;2023-03-01T15:50:43;7.40;99.90
58413;DHT22;44209;52.952;6.790;2023-03-01T15:53:13;7.30;99.90
58413;DHT22;44209;52.952;6.790;2023-03-01T15:55:40;7.30;99.90
58413;DHT22;44209;52.952;6.790;2023-03-01T15:58:11;7.30;99.90
58413;DHT22;44209;52.952;6.790;2023-03-01T16:00:37;7.30;99.90
58413;DHT22;44209;52.952;6.790;2023-03-01T16:03:05;7.30;99.90
58413;DHT22;44209;52.952;6.790;2023-03-01T16:05:33;7.30;99.90
58413;DHT22;44209;52.952;6.790;2023-03-01T16:08:00;7.20;99.90
58413;DHT22;44209;52.952;6.790;2023-03-01T16:10:27;7.20;99.90
58413;DHT22;44209;52.952;6.790;2023-03-01T16:12:53;7.20;99.90
58413;DHT22;44209;52.952;6.790;2023-03-01T16:15:28;7.10;99.90
58413;DHT22;44209;52.952;6.790;2023-03-01T16:17:54;7.10;99.90
58413;DHT22;44209;52.952;6.790;2023-03-01T16:20:20;7.00;99.90
58413;DHT22;44209;52.952;6.790;2023-03-01T16:22:46;7.00;99.90
58413;DHT22;44209;52.952;6.790;2023-03-01T16:25:14;7.00;99.90
58413;DHT22;44209;52.952;6.790;2023-03-01T16:27:47;6.90;99.90
58413;DHT22;44209;52.952;6.790;2023-03-01T16:30:16;6.90;99.90
58413;DHT22;44209;52.952;6.790;2023-03-01T16:32:44;6.80;99.90
58413;DHT22;44209;52.952;6.790;2023-03-01T16:35:12;6.70;99.90
58413;DHT22;44209;52.952;6.790;2023-03-01T16:37:39;6.70;99.90
58413;DHT22;44209;52.952;6.790;2023-03-01T16:40:06;6.70;99.90
58413;DHT22;44209;52.952;6.790;2023-03-01T16:42:36;6.60;99.90
58413;DHT22;44209;52.952;6.790;2023-03-01T16:45:03;6.60;99.90
58413;DHT22;44209;52.952;6.790;2023-03-01T16:47:29;6.50;99.90
58413;DHT22;44209;52.952;6.790;2023-03-01T16:49:55;6.50;99.90
58413;DHT22;44209;52.952;6.790;2023-03-01T16:52:22;6.40;99.90
58413;DHT22;44209;52.952;6.790;2023-03-01T16:54:48;6.30;99.90
58413;DHT22;44209;52.952;6.790;2023-03-01T16:57:13;6.30;99.90
58413;DHT22;44209;52.952;6.790;2023-03-01T16:59:39;6.20;99.90
58413;DHT22;44209;52.952;6.790;2023-03-01T17:02:06;6.20;99.90
58413;DHT22;44209;52.952;6.790;2023-03-01T17:04:35;6.10;99.90
58413;DHT22;44209;52.952;6.790;2023-03-01T17:07:00;6.00;99.90
58413;DHT22;44209;52.952;6.790;2023-03-01T17:09:26;6.00;99.90
58413;DHT22;44209;52.952;6.790;2023-03-01T17:11:52;5.90;99.90
58413;DHT22;44209;52.952;6.790;2023-03-01T17:14:17;5.80;99.90
58413;DHT22;44209;52.952;6.790;2023-03-01T17:16:43;5.80;99.90
58413;DHT22;44209;52.952;6.790;2023-03-01T17:19:10;5.70;99.90
58413;DHT22;44209;52.952;6.790;2023-03-01T17:21:36;5.70;99.90
58413;DHT22;44209;52.952;6.790;2023-03-01T17:24:02;5.60;99.90
58413;DHT22;44209;52.952;6.790;2023-03-01T17:26:28;5.60;99.90
58413;DHT22;44209;52.952;6.790;2023-03-01T17:28:55;5.60;99.90
58413;DHT22;44209;52.952;6.790;2023-03-01T17:31:21;5.50;99.90
58413;DHT22;44209;52.952;6.790;2023-03-01T17:33:47;5.50;99.90
58413;DHT22;44209;52.952;6.790;2023-03-01T17:36:15;5.50;99.90
58413;DHT22;44209;52.952;6.790;2023-03-01T17:38:41;5.40;99.90
58413;DHT22;44209;52.952;6.790;2023-03-01T17:41:06;5.40;99.90
58413;DHT22;44209;52.952;6.790;2023-03-01T17:43:32;5.30;99.90
58413;DHT22;44209;52.952;6.790;2023-03-01T17:45:59;5.30;99.90
58413;DHT22;44209;52.952;6.790;2023-03-01T17:48:25;5.20;99.90
58413;DHT22;44209;52.952;6.790;2023-03-01T17:50:51;5.20;99.90
58413;DHT22;44209;52.952;6.790;2023-03-01T17:53:17;5.10;99.90
58413;DHT22;44209;52.952;6.790;2023-03-01T17:55:43;5.10;99.90